Time;durP1;ratioP1;P1;durP2;ratioP2;P2;SDS_P1;SDS_P2;PMS_P1;PMS_P2;Temp;Humidity;BMP_temperature;BMP_pressure;BME280_temperature;BME280_humidity;BME280_pressure;Samples;Min_cycle;Max_cycle;Signal;HPM_P1;HPM_P2
2023/05/19 00:00:20;;;;;;;354.03;32.07;;;;;;;13.10;68.79;98603.19;4164115;28;20714;-85
2023/05/19 00:02:24;;;;;;;342.03;34.77;;;;;;;13.13;70.73;98599.53;4146767;28;20647;-84
2023/05/19 00:04:28;;;;;;;342.57;35.90;;;;;;;13.12;69.56;98600.47;4143102;28;20690;-85
2023/05/19 00:06:33;;;;;;;348.50;30.57;;;;;;;13.11;69.79;98597.03;4168234;28;21021;-85
2023/05/19 00:08:38;;;;;;;342.77;26.03;;;;;;;13.11;70.60;98607.50;4151728;28;20635;-85
2023/05/19 00:10:42;;;;;;;344.93;29.60;;;;;;;13.15;70.07;98598.44;4163511;28;20785;-85
2023/05/19 00:12:45;;;;;;;344.03;32.17;;;;;;;13.16;69.70;98608.00;4163421;28;21435;-85
2023/05/19 00:14:50;;;;;;;340.60;24.97;;;;;;;13.10;70.42;98600.56;4153060;28;21263;-85
2023/05/19 00:16:54;;;;;;;341.17;27.33;;;;;;;13.11;70.45;98601.41;4166621;28;21534;-85
2023/05/19 00:18:58;;;;;;;474.50;31.53;;;;;;;13.11;70.35;98596.16;4165567;28;20704;-85
2023/05/19 00:21:02;;;;;;;339.73;24.07;;;;;;;13.08;69.57;98597.22;4154331;28;20628;-85
2023/05/19 00:23:05;;;;;;;340.77;26.57;;;;;;;13.05;69.64;98596.59;4165190;28;21227;-85
2023/05/19 00:25:09;;;;;;;339.80;28.97;;;;;;;12.99;69.99;98587.41;4196385;28;20706;-85
2023/05/19 00:27:12;;;;;;;340.80;25.20;;;;;;;13.01;70.24;98595.97;4144295;28;20672;-84
2023/05/19 00:29:17;;;;;;;341.10;29.00;;;;;;;13.01;70.03;98585.50;4160121;28;20672;-85
2023/05/19 00:31:22;;;;;;;342.87;27.87;;;;;;;13.02;70.99;98591.56;4149534;28;20632;-84
2023/05/19 00:33:25;;;;;;;341.27;31.60;;;;;;;12.95;71.70;98592.97;4164867;28;21240;-85
2023/05/19 00:35:29;;;;;;;342.07;32.17;;;;;;;12.92;72.13;98596.63;4154346;28;20640;-85
2023/05/19 00:37:33;;;;;;;340.43;25.73;;;;;;;12.94;71.11;98584.25;4162275;28;20678;-84
2023/05/19 00:39:36;;;;;;;341.13;28.70;;;;;;;12.96;70.93;98594.59;4152189;28;20675;-85
2023/05/19 00:41:39;;;;;;;450.63;32.57;;;;;;;12.95;71.28;98591.16;4170463;28;21288;-84
2023/05/19 00:43:42;;;;;;;341.03;22.13;;;;;;;12.93;71.51;98589.59;4176924;28;20643;-85
2023/05/19 00:45:45;;;;;;;1146.17;52.03;;;;;;;12.92;70.09;98594.00;4156906;28;22579;-85
2023/05/19 00:47:50;;;;;;;421.00;36.30;;;;;;;12.94;71.53;98583.41;4165506;28;20636;-85
2023/05/19 00:49:53;;;;;;;827.47;23.13;;;;;;;12.94;70.59;98586.88;4156274;28;20680;-84
2023/05/19 00:51:57;;;;;;;344.73;34.30;;;;;;;12.93;70.79;98585.22;4170718;28;21263;-85
2023/05/19 00:54:00;;;;;;;371.23;26.10;;;;;;;12.95;71.38;98579.88;4185799;28;20650;-85
2023/05/19 00:56:04;;;;;;;342.77;28.90;;;;;;;12.90;71.95;98577.56;4166026;28;20671;-84
2023/05/19 00:58:10;;;;;;;346.20;29.67;;;;;;;12.90;70.95;98574.94;4166687;28;20636;-85
2023/05/19 01:00:14;;;;;;;644.13;41.10;;;;;;;12.91;70.85;98578.41;4164827;28;21240;-84
2023/05/19 01:02:18;;;;;;;361.23;33.10;;;;;;;12.94;70.35;98579.00;4151761;28;20646;-85
2023/05/19 01:04:24;;;;;;;344.87;28.93;;;;;;;12.96;70.68;98571.91;4155030;28;20675;-84
2023/05/19 01:06:28;;;;;;;342.87;25.43;;;;;;;12.93;71.47;98576.50;4148602;28;20675;-84
2023/05/19 01:08:32;;;;;;;475.63;27.87;;;;;;;12.92;71.99;98570.44;4164503;28;20633;-84
2023/05/19 01:10:35;;;;;;;424.57;27.27;;;;;;;12.93;72.11;98581.72;4162234;28;20646;-85
2023/05/19 01:12:40;;;;;;;513.70;30.80;;;;;;;12.91;70.74;98567.91;4154387;28;21516;-85
2023/05/19 01:14:44;;;;;;;344.27;27.17;;;;;;;12.88;71.86;98578.59;4147566;28;20633;-84
2023/05/19 01:16:51;;;;;;;341.50;31.87;;;;;;;12.83;71.10;98578.09;4167302;28;21266;-85
2023/05/19 01:19:00;;;;;;;632.20;49.60;;;;;;;12.82;71.11;98569.41;4160534;28;20765;-84
2023/05/19 01:21:18;;;;;;;371.87;33.83;;;;;;;12.82;71.32;98574.66;4170324;28;20625;-85
2023/05/19 01:23:35;;;;;;;341.20;30.03;;;;;;;12.85;70.86;98573.59;4164784;28;20642;-84
2023/05/19 01:26:13;;;;;;;340.67;29.77;;;;;;;12.88;72.31;98584.66;4149098;28;20670;-84
2023/05/19 01:28:30;;;;;;;345.30;27.33;;;;;;;12.92;71.04;98591.38;4169640;28;20745;-84
2023/05/19 01:30:37;;;;;;;343.43;27.90;;;;;;;12.94;71.31;98596.50;4166697;28;20781;-85
2023/05/19 01:32:43;;;;;;;343.67;30.27;;;;;;;12.96;71.26;98592.00;4168374;28;20682;-85
2023/05/19 01:34:49;;;;;;;341.77;33.43;;;;;;;12.94;72.63;98594.72;4165113;28;20639;-84
2023/05/19 01:36:54;;;;;;;371.80;34.03;;;;;;;12.91;73.06;98592.31;4163924;28;20688;-85
2023/05/19 01:38:59;;;;;;;341.37;26.47;;;;;;;12.87;72.44;98590.00;4162006;28;20630;-85
2023/05/19 01:41:03;;;;;;;341.77;33.60;;;;;;;12.83;72.97;98597.25;4150295;28;21106;-85
2023/05/19 01:43:08;;;;;;;341.97;29.53;;;;;;;12.86;73.71;98597.03;4163773;28;21215;-84
2023/05/19 01:45:12;;;;;;;340.43;28.77;;;;;;;12.87;72.01;98603.97;4148969;28;20635;-85
2023/05/19 01:47:17;;;;;;;395.23;30.47;;;;;;;12.90;73.17;98601.13;4170978;28;20735;-85
2023/05/19 01:49:20;;;;;;;343.10;29.77;;;;;;;12.92;73.03;98599.22;4171639;28;20720;-85
2023/05/19 01:51:24;;;;;;;373.20;32.40;;;;;;;12.95;74.00;98598.19;4152693;28;20636;-85
2023/05/19 01:53:27;;;;;;;342.40;31.50;;;;;;;12.96;75.11;98602.47;4166351;28;20691;-85
2023/05/19 01:55:30;;;;;;;340.60;27.43;;;;;;;12.96;74.46;98598.09;4155378;28;20642;-85
2023/05/19 01:57:37;;;;;;;340.80;29.40;;;;;;;12.95;75.87;98600.81;4152309;28;20639;-85
2023/05/19 01:59:46;;;;;;;340.40;28.40;;;;;;;12.97;75.12;98598.91;4149692;28;20640;-85
2023/05/19 02:01:52;;;;;;;341.90;24.37;;;;;;;12.97;74.74;98594.50;4162751;28;21059;-85
2023/05/19 02:04:13;;;;;;;341.10;24.37;;;;;;;12.95;75.26;98601.63;4153365;28;20675;-85
2023/05/19 02:06:33;;;;;;;362.37;31.47;;;;;;;12.94;76.05;98609.59;4149213;28;20663;-85
2023/05/19 02:08:43;;;;;;;345.67;34.07;;;;;;;12.94;74.32;98604.38;4160705;28;21307;-85
2023/05/19 02:10:51;;;;;;;340.97;30.63;;;;;;;12.92;75.28;98601.84;4144452;28;20634;-85
2023/05/19 02:13:00;;;;;;;341.47;31.00;;;;;;;12.94;75.53;98593.88;4194309;28;20625;-85
2023/05/19 02:15:09;;;;;;;346.20;31.07;;;;;;;12.93;75.10;98593.06;4163038;28;21023;-85
2023/05/19 02:17:13;;;;;;;345.33;30.13;;;;;;;12.91;75.35;98594.94;4159299;28;20721;-85
2023/05/19 02:19:25;;;;;;;344.33;26.27;;;;;;;12.88;76.12;98597.75;4160245;28;20650;-85
2023/05/19 02:21:30;;;;;;;340.80;35.70;;;;;;;12.84;76.13;98592.88;4157949;28;21280;-85
2023/05/19 02:23:33;;;;;;;341.80;32.83;;;;;;;12.81;76.25;98606.13;4153239;28;20668;-85
2023/05/19 02:25:36;;;;;;;356.63;27.73;;;;;;;12.79;75.81;98595.78;4154784;28;20659;-85
2023/05/19 02:27:41;;;;;;;343.73;31.20;;;;;;;12.77;76.49;98602.88;4172110;28;20738;-85
2023/05/19 02:29:44;;;;;;;347.63;35.70;;;;;;;12.77;76.90;98597.63;4154959;28;20644;-85
2023/05/19 02:31:48;;;;;;;341.40;29.70;;;;;;;12.76;75.59;98595.13;4163793;28;20634;-85
2023/05/19 02:33:51;;;;;;;342.93;29.10;;;;;;;12.77;75.56;98588.97;4168761;28;20652;-85
2023/05/19 02:35:56;;;;;;;342.73;30.37;;;;;;;12.76;76.51;98593.38;4180780;28;20635;-85
2023/05/19 02:37:59;;;;;;;345.03;33.87;;;;;;;12.77;75.61;98596.81;4171744;28;20646;-85
2023/05/19 02:40:03;;;;;;;340.80;29.90;;;;;;;12.76;76.16;98600.38;4161718;28;20630;-85
2023/05/19 02:42:06;;;;;;;389.07;31.50;;;;;;;12.72;76.63;98599.75;4164713;28;20628;-85
2023/05/19 02:44:09;;;;;;;344.87;33.83;;;;;;;12.70;76.69;98593.78;4153140;28;21624;-85
2023/05/19 02:46:12;;;;;;;341.20;30.83;;;;;;;12.70;76.95;98593.78;4171374;28;20646;-85
2023/05/19 02:48:16;;;;;;;343.27;28.70;;;;;;;12.67;77.37;98592.31;4158140;28;20702;-85
2023/05/19 02:50:19;;;;;;;361.03;31.27;;;;;;;12.63;75.99;98594.31;4155271;28;20663;-85
2023/05/19 02:52:23;;;;;;;339.70;31.27;;;;;;;12.59;74.87;98586.78;4158847;28;20643;-85
2023/05/19 02:54:26;;;;;;;342.20;26.37;;;;;;;12.58;75.33;98588.53;4173652;28;21515;-85
2023/05/19 02:56:29;;;;;;;340.97;26.10;;;;;;;12.58;77.35;98585.09;4159016;28;20735;-85
2023/05/19 02:58:33;;;;;;;345.63;25.70;;;;;;;12.57;77.64;98583.41;4199143;28;20636;-85
2023/05/19 03:00:36;;;;;;;345.53;30.80;;;;;;;12.54;77.52;98578.38;4168816;28;21500;-85
2023/05/19 03:02:40;;;;;;;344.77;25.43;;;;;;;12.52;76.41;98578.47;4179416;28;20703;-85
2023/05/19 03:04:44;;;;;;;341.97;32.93;;;;;;;12.51;78.08;98584.69;4167562;28;20738;-85
2023/05/19 03:06:47;;;;;;;342.83;34.00;;;;;;;12.51;77.25;98578.59;4166704;28;20653;-85
2023/05/19 03:08:52;;;;;;;340.17;27.43;;;;;;;12.48;78.01;98569.19;4153384;28;20637;-85
2023/05/19 03:10:55;;;;;;;346.90;26.33;;;;;;;12.47;77.34;98571.91;4156686;28;20670;-85
2023/05/19 03:12:58;;;;;;;340.77;27.87;;;;;;;12.43;78.04;98570.44;4164444;28;20625;-85
2023/05/19 03:15:01;;;;;;;342.83;36.00;;;;;;;12.43;76.59;98567.81;4165181;28;20655;-85
2023/05/19 03:17:06;;;;;;;388.37;33.67;;;;;;;12.42;77.36;98571.41;4166153;28;20639;-85
2023/05/19 03:19:09;;;;;;;375.00;38.97;;;;;;;12.41;77.82;98572.31;4155070;28;20778;-85
2023/05/19 03:21:13;;;;;;;346.07;34.60;;;;;;;12.39;76.86;98577.66;4174648;28;20728;-85
2023/05/19 03:23:16;;;;;;;344.63;31.30;;;;;;;12.35;79.34;98573.56;4174890;28;20704;-85
2023/05/19 03:25:20;;;;;;;405.77;31.50;;;;;;;12.32;76.84;98570.34;4169802;28;20642;-85
2023/05/19 03:27:24;;;;;;;343.00;28.13;;;;;;;12.30;76.59;98574.84;4170048;28;21263;-85
2023/05/19 03:29:27;;;;;;;340.43;32.37;;;;;;;12.28;77.57;98574.09;4181042;28;21839;-85
2023/05/19 03:31:30;;;;;;;340.63;30.67;;;;;;;12.24;77.53;98581.31;4171515;28;20636;-85
2023/05/19 03:33:34;;;;;;;345.57;34.30;;;;;;;12.24;78.52;98570.03;4152636;28;20670;-85
2023/05/19 03:35:38;;;;;;;340.93;31.67;;;;;;;12.20;78.43;98584.22;4180469;28;20660;-85
2023/05/19 03:37:41;;;;;;;343.47;31.53;;;;;;;12.20;79.30;98589.47;4158864;28;20634;-85
2023/05/19 03:39:44;;;;;;;375.50;36.33;;;;;;;12.17;77.48;98566.13;4158184;28;20730;-85
2023/05/19 03:41:48;;;;;;;361.83;34.10;;;;;;;12.15;77.89;98580.22;4176528;28;20650;-85
2023/05/19 03:43:52;;;;;;;355.47;29.03;;;;;;;12.16;77.86;98580.13;4171750;28;20638;-85
2023/05/19 03:45:55;;;;;;;350.93;34.83;;;;;;;12.13;77.30;98577.72;4168270;28;20622;-85
2023/05/19 03:48:16;;;;;;;376.27;30.17;;;;;;;12.08;78.61;98579.81;4171992;28;20641;-84
2023/05/19 03:50:43;;;;;;;402.33;36.90;;;;;;;12.04;79.41;98580.13;4174793;28;20636;-85
2023/05/19 03:52:57;;;;;;;348.10;32.30;;;;;;;12.01;80.37;98583.78;4174254;28;20645;-85
2023/05/19 03:55:07;;;;;;;342.97;33.10;;;;;;;11.97;80.73;98577.06;4171788;28;20665;-85
2023/05/19 03:57:12;;;;;;;343.53;30.93;;;;;;;11.95;80.29;98573.75;4158265;28;20662;-85
2023/05/19 03:59:16;;;;;;;341.30;33.90;;;;;;;11.95;79.83;98576.34;4163443;28;20629;-85
2023/05/19 04:01:19;;;;;;;398.27;31.27;;;;;;;11.96;79.46;98588.47;4163991;28;20628;-85
2023/05/19 04:03:22;;;;;;;346.27;33.50;;;;;;;11.96;80.45;98591.06;4168018;28;20674;-85
2023/05/19 04:05:25;;;;;;;364.13;38.47;;;;;;;11.96;80.07;98579.78;4167210;28;20657;-85
2023/05/19 04:07:29;;;;;;;345.60;31.57;;;;;;;11.96;79.90;98580.63;4163800;28;20646;-85
2023/05/19 04:09:34;;;;;;;344.90;29.63;;;;;;;11.99;80.00;98588.25;4143350;28;20717;-85
2023/05/19 04:11:38;;;;;;;344.17;30.47;;;;;;;12.03;80.29;98591.53;4166303;28;20764;-85
2023/05/19 04:13:42;;;;;;;341.20;29.40;;;;;;;12.03;81.64;98594.97;4159984;28;20639;-85
2023/05/19 04:15:47;;;;;;;347.60;35.70;;;;;;;12.05;79.68;98594.88;4152460;28;20686;-85
2023/05/19 04:17:50;;;;;;;343.40;28.87;;;;;;;12.05;81.96;98595.69;4152801;28;20667;-85
2023/05/19 04:19:53;;;;;;;341.13;32.73;;;;;;;12.08;81.35;98590.28;4164404;28;20639;-86
2023/05/19 04:21:57;;;;;;;366.43;37.47;;;;;;;12.12;81.66;98591.75;4167131;28;20637;-85
2023/05/19 04:24:00;;;;;;;344.90;32.10;;;;;;;12.15;80.24;98601.16;4163675;28;20641;-85
2023/05/19 04:26:05;;;;;;;374.00;38.80;;;;;;;12.16;79.51;98603.66;4163665;28;20622;-85
2023/05/19 04:28:08;;;;;;;354.93;33.87;;;;;;;12.16;80.73;98603.66;4153484;28;20734;-85
2023/05/19 04:30:20;;;;;;;345.77;36.00;;;;;;;12.19;81.35;98602.63;4169343;28;20682;-85
2023/05/19 04:32:24;;;;;;;342.73;32.47;;;;;;;12.21;79.98;98609.44;4158471;28;20971;-85
2023/05/19 04:34:28;;;;;;;344.83;26.20;;;;;;;12.21;79.82;98606.84;4158191;28;20714;-85
2023/05/19 04:36:32;;;;;;;341.50;34.27;;;;;;;12.24;79.28;98601.41;4147620;28;20646;-85
2023/05/19 04:38:38;;;;;;;342.93;30.47;;;;;;;12.23;78.64;98611.97;4149108;28;20661;-85
2023/05/19 04:40:43;;;;;;;342.53;33.33;;;;;;;12.28;77.87;98618.53;4151311;28;20651;-85
2023/05/19 04:42:48;;;;;;;354.63;34.60;;;;;;;12.31;78.74;98623.56;4164341;28;20622;-85
2023/05/19 04:44:51;;;;;;;341.10;33.77;;;;;;;12.37;76.41;98613.56;4164307;28;21963;-85
2023/05/19 04:46:58;;;;;;;342.73;31.77;;;;;;;12.45;77.18;98623.50;4155965;28;20638;-85
2023/05/19 04:49:02;;;;;;;372.20;32.33;;;;;;;12.48;77.91;98616.28;4152310;28;20638;-85
2023/05/19 04:51:06;;;;;;;341.47;29.33;;;;;;;12.53;76.33;98621.19;4158393;28;20646;-84
2023/05/19 04:53:10;;;;;;;341.63;31.37;;;;;;;12.58;76.64;98614.69;4150919;28;20629;-85
2023/05/19 04:55:14;;;;;;;358.20;31.83;;;;;;;12.61;76.49;98621.50;4153781;28;21088;-85
2023/05/19 04:57:17;;;;;;;341.70;29.27;;;;;;;12.67;75.27;98618.47;4153288;28;21075;-85
2023/05/19 04:59:22;;;;;;;369.27;30.33;;;;;;;12.72;74.55;98620.69;4168810;28;20637;-85
2023/05/19 05:01:25;;;;;;;372.10;28.03;;;;;;;12.75;75.19;98612.63;4152991;28;20620;-85
2023/05/19 05:03:33;;;;;;;342.10;26.27;;;;;;;12.74;74.65;98608.31;4178934;28;20642;-85
2023/05/19 05:05:36;;;;;;;341.50;28.37;;;;;;;12.76;75.24;98616.94;4170124;28;20665;-85
2023/05/19 05:07:39;;;;;;;342.30;27.53;;;;;;;12.81;75.07;98617.44;4165874;28;20690;-85
2023/05/19 05:09:43;;;;;;;343.00;24.77;;;;;;;12.84;74.24;98613.81;4159792;28;20637;-85
2023/05/19 05:11:47;;;;;;;342.80;26.43;;;;;;;12.89;73.67;98617.78;4192534;28;21172;-84
2023/05/19 05:13:51;;;;;;;383.60;29.20;;;;;;;12.97;75.48;98619.88;4168997;28;20647;-85
2023/05/19 05:15:55;;;;;;;341.13;27.60;;;;;;;13.03;73.59;98620.25;4165900;28;20773;-85
2023/05/19 05:17:59;;;;;;;343.70;28.60;;;;;;;13.09;74.38;98622.44;4172687;28;20683;-85
2023/05/19 05:20:05;;;;;;;341.57;33.57;;;;;;;13.17;74.91;98617.53;4151739;28;20640;-85
2023/05/19 05:22:09;;;;;;;341.83;30.07;;;;;;;13.28;75.02;98620.25;4156402;28;20630;-85
2023/05/19 05:24:15;;;;;;;339.97;29.03;;;;;;;13.38;74.27;98613.38;4162766;28;20645;-85
2023/05/19 05:26:28;;;;;;;342.43;26.87;;;;;;;13.46;74.06;98618.94;4145115;28;20627;-85
2023/05/19 05:28:31;;;;;;;366.20;29.40;;;;;;;13.51;72.69;98627.28;4167959;28;20657;-85
2023/05/19 05:30:34;;;;;;;347.40;30.07;;;;;;;13.58;72.17;98618.88;4145755;28;20639;-85
2023/05/19 05:32:39;;;;;;;323.63;25.97;;;;;;;13.66;72.06;98622.63;4163993;28;20672;-85
2023/05/19 05:34:51;;;;;;;341.77;26.93;;;;;;;13.83;71.92;98619.63;4156495;28;21229;-85
2023/05/19 05:36:55;;;;;;;426.53;31.03;;;;;;;13.91;71.09;98614.66;4196446;28;20665;-82
2023/05/19 05:38:59;;;;;;;242.93;23.77;;;;;;;14.09;70.83;98617.72;4155573;28;21213;-84
2023/05/19 05:41:02;;;;;;;305.30;21.67;;;;;;;14.33;71.00;98608.91;4175947;28;20676;-84
2023/05/19 05:43:06;;;;;;;275.87;19.67;;;;;;;14.60;70.31;98618.16;4158354;28;20704;-85
2023/05/19 05:45:15;;;;;;;303.33;19.27;;;;;;;14.82;69.07;98620.78;4144229;28;20647;-85
2023/05/19 05:47:18;;;;;;;344.17;18.83;;;;;;;15.07;68.35;98628.47;4163230;28;20670;-86
2023/05/19 05:49:22;;;;;;;343.67;22.77;;;;;;;15.22;67.46;98628.13;4156280;28;20636;-85
2023/05/19 05:51:26;;;;;;;204.10;21.40;;;;;;;15.01;67.26;98627.13;4154611;28;20632;-85
2023/05/19 05:53:33;;;;;;;358.27;26.57;;;;;;;14.90;68.30;98632.38;4165781;28;20629;-85
2023/05/19 05:55:37;;;;;;;273.10;24.87;;;;;;;15.10;68.55;98632.50;4164536;28;21109;-86
2023/05/19 05:57:42;;;;;;;208.27;18.13;;;;;;;15.42;67.58;98633.47;4164750;28;20627;-85
2023/05/19 05:59:45;;;;;;;279.87;21.10;;;;;;;15.66;66.75;98640.25;4168978;28;20622;-84
2023/05/19 06:01:49;;;;;;;599.67;23.07;;;;;;;15.85;65.83;98651.00;4179725;28;20635;-85
2023/05/19 06:03:53;;;;;;;100.93;22.33;;;;;;;15.99;66.42;98648.06;4156057;28;20648;-85
2023/05/19 06:05:59;;;;;;;126.17;26.90;;;;;;;16.14;65.97;98646.81;4169341;28;20765;-85
2023/05/19 06:08:02;;;;;;;110.87;23.10;;;;;;;16.19;65.81;98634.97;4161303;28;20643;-85
2023/05/19 06:10:08;;;;;;;105.73;23.93;;;;;;;16.17;63.94;98638.69;4184806;28;20858;-85
2023/05/19 06:12:11;;;;;;;124.00;18.00;;;;;;;16.38;65.13;98650.94;4152150;28;20626;-85
2023/05/19 06:14:21;;;;;;;150.63;26.83;;;;;;;16.64;64.30;98645.19;4151411;28;20727;-85
2023/05/19 06:16:50;;;;;;;68.03;18.87;;;;;;;16.99;64.41;98650.97;4168297;28;21042;-85
2023/05/19 06:18:53;;;;;;;131.67;19.90;;;;;;;17.18;63.76;98653.69;4173623;28;21068;-86
2023/05/19 06:20:57;;;;;;;105.03;23.07;;;;;;;17.44;61.98;98649.66;4171387;28;20630;-84
2023/05/19 06:23:00;;;;;;;71.03;16.67;;;;;;;17.65;61.22;98654.75;4169010;28;20629;-86
2023/05/19 06:25:05;;;;;;;75.20;21.90;;;;;;;17.94;60.75;98648.56;4156993;28;20618;-85
2023/05/19 06:27:10;;;;;;;81.37;18.83;;;;;;;17.92;60.16;98651.47;4178183;28;20677;-85
2023/05/19 06:29:13;;;;;;;120.03;21.33;;;;;;;18.04;60.94;98648.56;4161490;28;20637;-83
2023/05/19 06:31:17;;;;;;;80.83;18.93;;;;;;;18.42;61.88;98652.94;4151992;28;20646;-84
2023/05/19 06:33:29;;;;;;;128.33;24.13;;;;;;;18.73;58.97;98651.78;4162375;28;20638;-87
2023/05/19 06:35:32;;;;;;;230.10;17.83;;;;;;;18.77;58.88;98647.91;4169850;28;20656;-88
2023/05/19 06:37:36;;;;;;;61.20;16.53;;;;;;;18.66;59.24;98645.44;4146958;28;20663;-85
2023/05/19 06:39:39;;;;;;;51.30;15.13;;;;;;;18.62;58.62;98651.97;4166465;28;20727;-88
2023/05/19 06:41:42;;;;;;;61.07;18.00;;;;;;;18.50;58.88;98655.72;4153286;28;20656;-84
2023/05/19 06:43:59;;;;;;;102.40;26.17;;;;;;;18.22;59.87;98645.16;4189398;28;20670;-84
2023/05/19 06:46:06;;;;;;;72.90;17.77;;;;;;;18.25;59.84;98641.41;4163106;28;20638;-85
2023/05/19 06:48:09;;;;;;;58.40;16.87;;;;;;;18.21;59.48;98642.66;4172274;28;20702;-85
2023/05/19 06:50:13;;;;;;;52.90;21.50;;;;;;;18.20;59.35;98630.44;4156598;28;20636;-83
2023/05/19 06:52:17;;;;;;;109.70;31.77;;;;;;;17.99;60.47;98637.59;4152847;28;20640;-83
2023/05/19 06:54:20;;;;;;;140.90;33.13;;;;;;;17.80;61.22;98642.84;4173007;28;20669;-84
2023/05/19 06:56:24;;;;;;;61.90;18.77;;;;;;;17.57;59.93;98636.09;4168003;28;20663;-85
2023/05/19 06:58:27;;;;;;;64.80;19.13;;;;;;;17.32;60.55;98634.91;4165044;28;20687;-85
2023/05/19 07:00:32;;;;;;;60.87;16.03;;;;;;;17.14;62.52;98632.03;4165542;28;21214;-84
2023/05/19 07:02:36;;;;;;;76.43;19.13;;;;;;;16.97;62.77;98633.59;4169397;28;20621;-85
2023/05/19 07:04:41;;;;;;;43.33;17.00;;;;;;;16.62;62.13;98627.84;4154302;28;20666;-89
2023/05/19 07:06:46;;;;;;;74.23;18.43;;;;;;;16.53;63.66;98613.63;4145266;28;20668;-83
2023/05/19 07:08:49;;;;;;;82.87;21.50;;;;;;;16.61;63.71;98613.84;4151567;28;20732;-84
2023/05/19 07:10:54;;;;;;;86.17;22.63;;;;;;;16.64;64.50;98616.22;4146636;28;20992;-83
2023/05/19 07:12:58;;;;;;;82.83;22.47;;;;;;;16.58;64.53;98611.47;4165999;28;20665;-82
2023/05/19 07:15:06;;;;;;;77.20;19.77;;;;;;;16.50;63.60;98612.25;4168558;28;20629;-85
2023/05/19 07:17:11;;;;;;;66.43;17.33;;;;;;;16.35;63.21;98613.50;4176707;28;20749;-84
2023/05/19 07:19:18;;;;;;;62.03;16.50;;;;;;;16.17;63.54;98610.56;4147978;28;20672;-84
2023/05/19 07:21:22;;;;;;;57.30;24.43;;;;;;;15.89;65.44;98602.44;4169690;28;20628;-84
2023/05/19 07:23:26;;;;;;;78.60;19.90;;;;;;;15.81;65.71;98599.56;4170748;28;20633;-84
2023/05/19 07:25:29;;;;;;;71.87;18.60;;;;;;;15.64;66.18;98605.38;4159486;28;20632;-84
2023/05/19 07:27:33;;;;;;;93.77;22.27;;;;;;;15.51;66.33;98606.47;4152696;28;20633;-84
2023/05/19 07:29:36;;;;;;;90.60;20.27;;;;;;;15.32;65.84;98602.78;4167056;28;20750;-84
2023/05/19 07:31:40;;;;;;;75.73;23.30;;;;;;;15.44;67.30;98607.06;4163717;28;20645;-84
2023/05/19 07:33:44;;;;;;;89.47;25.57;;;;;;;15.43;66.92;98608.88;4169133;28;21093;-84
2023/05/19 07:35:48;;;;;;;129.00;27.73;;;;;;;15.45;66.23;98604.31;4164336;28;20666;-84
2023/05/19 07:37:52;;;;;;;60.80;19.47;;;;;;;15.58;67.38;98610.28;4165171;28;20656;-84
2023/05/19 07:39:55;;;;;;;77.37;21.70;;;;;;;15.67;67.06;98612.19;4180499;28;20644;-83
2023/05/19 07:41:58;;;;;;;62.30;22.83;;;;;;;15.64;68.32;98605.38;4163403;28;20660;-83
2023/05/19 07:44:06;;;;;;;98.77;25.87;;;;;;;15.64;66.11;98602.72;4170888;28;20630;-84
2023/05/19 07:46:09;;;;;;;74.00;21.33;;;;;;;15.67;67.65;98610.38;4167823;28;21231;-84
2023/05/19 07:48:12;;;;;;;80.47;21.33;;;;;;;15.75;66.48;98609.75;4153972;28;21023;-84
2023/05/19 07:50:17;;;;;;;80.87;23.53;;;;;;;15.84;67.78;98609.03;4170558;28;20620;-83
2023/05/19 07:52:20;;;;;;;68.03;19.33;;;;;;;16.01;68.49;98609.31;4162423;28;20628;-83
2023/05/19 07:54:23;;;;;;;73.40;19.13;;;;;;;16.09;66.67;98607.72;4162893;28;20823;-87
2023/05/19 07:56:26;;;;;;;75.37;20.47;;;;;;;16.21;68.23;98600.63;4160837;28;20696;-85
2023/05/19 07:58:30;;;;;;;86.10;20.60;;;;;;;16.37;67.01;98601.88;4159046;28;20724;-85
2023/05/19 08:00:34;;;;;;;83.97;21.67;;;;;;;16.40;65.66;98606.06;4156219;28;20633;-85
2023/05/19 08:02:37;;;;;;;59.07;20.63;;;;;;;16.29;65.49;98590.31;4164001;28;20633;-85
2023/05/19 08:04:40;;;;;;;64.57;18.63;;;;;;;16.22;66.73;98602.31;4151756;28;20652;-85
2023/05/19 08:06:45;;;;;;;93.47;22.93;;;;;;;16.23;66.72;98598.72;4164196;28;20673;-85
2023/05/19 08:08:49;;;;;;;64.77;21.00;;;;;;;16.22;67.53;98602.31;4161099;28;20679;-85
2023/05/19 08:10:52;;;;;;;72.83;19.83;;;;;;;16.21;65.81;98590.94;4150655;28;20681;-85
2023/05/19 08:12:55;;;;;;;85.97;19.97;;;;;;;16.25;67.38;98594.16;4160737;28;20638;-85
2023/05/19 08:14:58;;;;;;;102.80;29.60;;;;;;;16.15;66.63;98590.59;4164252;28;21206;-85
2023/05/19 08:17:03;;;;;;;61.43;19.57;;;;;;;16.20;66.88;98593.69;4154479;28;20632;-86
2023/05/19 08:19:07;;;;;;;57.90;21.03;;;;;;;16.22;67.41;98589.16;4160368;28;20663;-85
2023/05/19 08:21:10;;;;;;;61.53;17.43;;;;;;;16.11;66.66;98584.75;4160404;28;20643;-85
2023/05/19 08:23:15;;;;;;;70.60;17.47;;;;;;;16.05;67.42;98592.31;4160032;28;20635;-85
2023/05/19 08:25:18;;;;;;;73.17;18.13;;;;;;;16.09;67.81;98586.69;4162420;28;20730;-85
2023/05/19 08:27:21;;;;;;;76.43;23.37;;;;;;;16.08;66.09;98582.34;4155624;28;20655;-85
2023/05/19 08:29:25;;;;;;;68.63;18.97;;;;;;;15.98;66.75;98577.97;4175138;28;20709;-85
2023/05/19 08:31:28;;;;;;;81.83;19.73;;;;;;;15.93;67.52;98574.06;4169880;28;20634;-85
2023/05/19 08:33:31;;;;;;;74.63;20.57;;;;;;;16.01;67.94;98584.78;4152603;28;20661;-85
2023/05/19 08:35:34;;;;;;;86.50;26.60;;;;;;;15.95;67.24;98583.53;4164815;28;20723;-87
2023/05/19 08:37:37;;;;;;;80.00;21.57;;;;;;;15.94;68.40;98576.56;4155867;28;20710;-88
2023/05/19 08:39:42;;;;;;;352.83;48.50;;;;;;;15.92;67.13;98573.25;4168393;28;20655;-89
2023/05/19 08:41:45;;;;;;;82.40;19.43;;;;;;;15.93;68.82;98587.22;4154482;28;21521;-88
2023/05/19 08:43:48;;;;;;;89.60;25.47;;;;;;;15.91;66.53;98574.19;4169648;28;20669;-88
2023/05/19 08:45:53;;;;;;;61.80;21.97;;;;;;;16.01;67.92;98572.47;4173246;28;21043;-87
2023/05/19 08:47:56;;;;;;;99.97;23.23;;;;;;;16.02;67.10;98578.59;4200285;28;20748;-87
2023/05/19 08:50:03;;;;;;;85.00;22.17;;;;;;;16.06;68.20;98584.28;4169365;28;20660;-88
2023/05/19 08:52:14;;;;;;;88.60;26.83;;;;;;;16.05;67.58;98590.50;4166498;28;20635;-87
2023/05/19 08:54:19;;;;;;;595.63;35.10;;;;;;;16.07;66.21;98587.75;4148197;28;20634;-87
2023/05/19 08:56:25;;;;;;;68.17;17.63;;;;;;;16.05;68.81;98585.25;4140377;28;20724;-88
2023/05/19 08:58:29;;;;;;;100.27;26.23;;;;;;;16.05;68.37;98579.16;4150672;28;21262;-87
2023/05/19 09:00:32;;;;;;;68.17;28.80;;;;;;;16.07;66.52;98579.84;4167446;28;20642;-88
2023/05/19 09:02:38;;;;;;;93.07;31.70;;;;;;;16.14;66.79;98581.84;4144003;28;20626;-87
2023/05/19 09:05:01;;;;;;;72.07;21.87;;;;;;;16.25;66.59;98575.75;4178436;28;21021;-87
2023/05/19 09:07:05;;;;;;;79.83;22.43;;;;;;;16.22;65.68;98571.59;4151748;28;20663;-88
2023/05/19 09:09:10;;;;;;;58.73;20.27;;;;;;;16.31;66.15;98575.22;4152261;28;21304;-88
2023/05/19 09:11:13;;;;;;;76.77;18.00;;;;;;;16.28;67.25;98573.69;4179991;28;20672;-88
2023/05/19 09:13:18;;;;;;;81.83;22.50;;;;;;;16.24;67.57;98564.38;4168149;28;20730;-88
2023/05/19 09:15:22;;;;;;;62.73;21.17;;;;;;;16.37;67.14;98567.63;4163423;28;20634;-88
2023/05/19 09:17:26;;;;;;;63.43;25.70;;;;;;;16.50;67.76;98570.94;4164296;28;20627;-87
2023/05/19 09:19:29;;;;;;;75.83;23.83;;;;;;;16.57;68.13;98572.91;4164224;28;21271;-87
2023/05/19 09:21:33;;;;;;;66.43;19.53;;;;;;;16.56;67.75;98570.41;4151940;28;20755;-87
2023/05/19 09:23:36;;;;;;;77.20;21.57;;;;;;;16.51;67.29;98573.44;4168837;28;20637;-88
2023/05/19 09:25:46;;;;;;;65.60;21.33;;;;;;;16.42;66.16;98568.13;4154221;28;20631;-88
2023/05/19 09:27:50;;;;;;;68.57;20.70;;;;;;;16.40;67.05;98571.81;4150711;28;20639;-87
2023/05/19 09:29:54;;;;;;;128.03;23.27;;;;;;;16.39;66.00;98575.41;4174879;28;20678;-87